Bituruna, Brazil
Current Conditions -  °F | °C
As of 3:00 PM on Thursday 30 Oct 2014 (Local Time) from SBCH Reporting Station
Thunderstorm Thunderstorm  
Wind Chill: 68°   Ceiling: 500
Heat Index: 68°   Visibility: 5mi
Dew Point: 63°   Wind: 12mph
Humidity: 83%   Direction: 220°SW
Pressure: 29.88"   Gusts: 29mph
Location:  26.16°S, 51.55°W
Report Text: SBCH 301700Z 22010G25KT 8000 -TSRA BKN005 BKN040 FEW050CB OVC100 20/17 Q1012
Loading
Personal Weather Stations






























Interactive Weather Map
Tropical Storm Tracking
New forecast layout! Learn more

10-Day Weather Forecast

Advertisements
Track Severe Weather on mobile